Time;durP1;ratioP1;P1;durP2;ratioP2;P2;SDS_P1;SDS_P2;PMS_P1;PMS_P2;Temp;Humidity;BMP_temperature;BMP_pressure;BME280_temperature;BME280_humidity;BME280_pressure;Samples;Min_cycle;Max_cycle;Signal;HPM_P1;HPM_P2
2021/11/26 00:01:21;;;;;;;7.43;5.78;;;;;;;;;;5073296;28;20050;-56
2021/11/26 00:03:47;;;;;;;9.55;6.30;;;;;;;;;;5073148;28;20474;-58
2021/11/26 00:06:13;;;;;;;7.80;5.68;;;;;;;;;;5072653;28;20102;-57
2021/11/26 00:08:39;;;;;;;7.82;5.93;;;;;;;;;;5073341;28;20572;-57
2021/11/26 00:11:05;;;;;;;9.13;5.75;;;;;;;;;;5072959;28;20115;-58
2021/11/26 00:13:41;;;;;;;8.73;6.30;;;;;;;;;;5071823;28;20024;-57
2021/11/26 00:16:14;;;;;;;7.00;5.65;;;;;;;;;;5073000;28;20124;-58
2021/11/26 00:18:46;;;;;;;7.60;5.95;;;;;;;;;;5073354;28;20040;-57
2021/11/26 00:21:12;;;;;;;8.63;6.18;;;;;;;;;;5072167;28;20021;-59
2021/11/26 00:23:38;;;;;;;7.78;5.20;;;;;;;;;;5069244;28;20104;-58
2021/11/26 00:26:05;;;;;;;6.18;5.15;;;;;;;;;;5072735;28;20111;-58
2021/11/26 00:28:31;;;;;;;8.55;6.25;;;;;;;;;;5073318;28;20029;-57
2021/11/26 00:30:57;;;;;;;7.50;5.40;;;;;;;;;;5073821;28;20028;-57
2021/11/26 00:33:23;;;;;;;6.68;5.35;;;;;;;;;;5072250;28;20085;-57
2021/11/26 00:35:50;;;;;;;7.53;5.63;;;;;;;;;;5072728;28;20028;-57
2021/11/26 00:38:16;;;;;;;7.45;6.07;;;;;;;;;;5072551;28;20043;-57
2021/11/26 00:40:42;;;;;;;7.78;5.75;;;;;;;;;;5073269;28;20040;-57
2021/11/26 00:43:08;;;;;;;6.70;5.22;;;;;;;;;;5072060;28;20042;-57
2021/11/26 00:45:34;;;;;;;7.47;5.47;;;;;;;;;;5072779;28;20029;-57
2021/11/26 00:48:03;;;;;;;8.73;6.18;;;;;;;;;;5072503;28;20123;-59
2021/11/26 00:50:29;;;;;;;7.65;5.85;;;;;;;;;;5072334;28;20056;-58
2021/11/26 00:52:55;;;;;;;7.15;5.28;;;;;;;;;;5072353;28;20020;-57
2021/11/26 00:55:21;;;;;;;8.60;6.22;;;;;;;;;;5071859;28;20024;-57
2021/11/26 00:57:47;;;;;;;8.38;5.65;;;;;;;;;;5072495;28;20481;-57
2021/11/26 01:00:15;;;;;;;6.45;5.05;;;;;;;;;;5072935;28;20024;-57
2021/11/26 01:02:42;;;;;;;7.28;5.70;;;;;;;;;;5072864;28;20118;-57
2021/11/26 01:05:09;;;;;;;8.45;6.38;;;;;;;;;;5071490;28;20533;-56
2021/11/26 01:07:36;;;;;;;8.57;6.40;;;;;;;;;;5071908;28;20074;-57
2021/11/26 01:10:07;;;;;;;7.90;5.43;;;;;;;;;;5071989;28;20029;-59
2021/11/26 01:12:33;;;;;;;7.70;5.70;;;;;;;;;;5071952;28;20036;-57
2021/11/26 01:14:59;;;;;;;7.82;5.88;;;;;;;;;;5072610;28;20436;-59
2021/11/26 01:17:25;;;;;;;8.38;6.07;;;;;;;;;;5071938;28;20028;-57
2021/11/26 01:19:51;;;;;;;8.73;6.28;;;;;;;;;;5071971;28;20021;-57
2021/11/26 01:22:17;;;;;;;7.43;5.75;;;;;;;;;;5064232;28;20032;-58
2021/11/26 01:24:43;;;;;;;6.68;5.45;;;;;;;;;;5071714;28;20025;-56
2021/11/26 01:27:11;;;;;;;7.75;5.20;;;;;;;;;;5071704;28;20074;-57
2021/11/26 01:29:37;;;;;;;8.05;5.78;;;;;;;;;;5072028;28;20055;-57
2021/11/26 01:32:04;;;;;;;7.40;5.63;;;;;;;;;;5071420;28;20063;-59
2021/11/26 01:34:30;;;;;;;8.13;5.25;;;;;;;;;;5071625;28;20028;-57
2021/11/26 01:36:57;;;;;;;7.60;6.00;;;;;;;;;;5071613;28;20049;-57
2021/11/26 01:39:23;;;;;;;7.10;5.40;;;;;;;;;;5070649;28;20032;-55
2021/11/26 01:41:51;;;;;;;8.30;5.80;;;;;;;;;;5072100;28;20367;-57
2021/11/26 01:44:18;;;;;;;7.93;5.28;;;;;;;;;;5070679;28;20044;-57
2021/11/26 01:46:44;;;;;;;7.50;5.47;;;;;;;;;;5071875;28;20465;-57
2021/11/26 01:49:11;;;;;;;8.52;5.28;;;;;;;;;;5071229;28;20089;-57
2021/11/26 01:51:37;;;;;;;8.32;5.55;;;;;;;;;;5071532;28;20041;-57
2021/11/26 01:54:04;;;;;;;8.80;6.32;;;;;;;;;;5071208;28;20036;-59
2021/11/26 01:56:30;;;;;;;7.93;5.93;;;;;;;;;;5071478;28;20024;-57
2021/11/26 01:58:56;;;;;;;8.10;5.93;;;;;;;;;;5071923;28;20103;-57
2021/11/26 02:01:23;;;;;;;6.82;5.57;;;;;;;;;;5071126;28;20025;-57
2021/11/26 02:03:49;;;;;;;8.73;5.97;;;;;;;;;;5071016;28;20409;-57
2021/11/26 02:06:15;;;;;;;7.30;5.97;;;;;;;;;;5070400;28;20533;-57
2021/11/26 02:08:42;;;;;;;7.43;5.93;;;;;;;;;;5070315;28;20428;-57
2021/11/26 02:11:08;;;;;;;7.88;5.75;;;;;;;;;;5070797;28;20058;-57
2021/11/26 02:13:34;;;;;;;7.97;5.43;;;;;;;;;;5071237;28;20115;-58
2021/11/26 02:16:02;;;;;;;8.63;5.97;;;;;;;;;;5070824;28;20037;-57
2021/11/26 02:18:28;;;;;;;6.95;5.57;;;;;;;;;;5070933;28;20086;-58
2021/11/26 02:20:55;;;;;;;7.80;5.72;;;;;;;;;;5071379;28;20028;-57
2021/11/26 02:23:21;;;;;;;8.10;6.00;;;;;;;;;;5062417;28;20112;-58
2021/11/26 02:25:47;;;;;;;6.45;5.18;;;;;;;;;;5071668;28;20429;-58
2021/11/26 02:28:15;;;;;;;8.45;6.20;;;;;;;;;;5070898;28;20154;-57
2021/11/26 02:30:42;;;;;;;8.15;6.38;;;;;;;;;;5071272;28;20034;-56
2021/11/26 02:33:16;;;;;;;6.47;4.80;;;;;;;;;;5070603;28;20032;-57
2021/11/26 02:35:42;;;;;;;7.03;5.47;;;;;;;;;;5071501;28;20035;-58
2021/11/26 02:38:09;;;;;;;8.07;5.45;;;;;;;;;;5075008;28;20048;-57
2021/11/26 02:40:37;;;;;;;7.72;5.43;;;;;;;;;;5074908;28;20021;-57
2021/11/26 02:43:09;;;;;;;9.00;5.80;;;;;;;;;;5075372;28;20024;-59
2021/11/26 02:45:36;;;;;;;6.53;5.38;;;;;;;;;;5074789;28;20023;-58
2021/11/26 02:48:04;;;;;;;7.22;5.50;;;;;;;;;;5075231;28;20033;-60
2021/11/26 02:50:32;;;;;;;8.05;6.28;;;;;;;;;;5074457;28;20539;-57
2021/11/26 02:52:58;;;;;;;7.97;5.60;;;;;;;;;;5075022;28;20033;-57
2021/11/26 02:55:26;;;;;;;7.60;5.55;;;;;;;;;;5074437;28;20020;-58
2021/11/26 02:57:52;;;;;;;7.25;5.32;;;;;;;;;;5075284;28;20032;-57
2021/11/26 03:00:20;;;;;;;6.80;5.60;;;;;;;;;;5073828;28;20032;-57
2021/11/26 03:02:47;;;;;;;7.50;5.78;;;;;;;;;;5075260;28;20050;-57
2021/11/26 03:05:14;;;;;;;7.68;5.78;;;;;;;;;;5074316;28;20021;-57
2021/11/26 03:07:41;;;;;;;8.32;5.90;;;;;;;;;;5074721;28;20056;-58
2021/11/26 03:10:08;;;;;;;8.20;5.32;;;;;;;;;;5073698;28;20039;-59
2021/11/26 03:12:35;;;;;;;8.75;6.15;;;;;;;;;;5074878;28;20028;-57
2021/11/26 03:15:01;;;;;;;7.45;4.93;;;;;;;;;;5074633;28;20032;-57
2021/11/26 03:17:27;;;;;;;8.82;5.63;;;;;;;;;;5073912;28;20082;-57
2021/11/26 03:19:53;;;;;;;7.70;5.50;;;;;;;;;;5074437;28;20378;-57
2021/11/26 03:22:19;;;;;;;7.60;5.93;;;;;;;;;;5066088;28;20371;-58
2021/11/26 03:24:46;;;;;;;8.35;5.82;;;;;;;;;;5054664;28;20032;-57
2021/11/26 03:27:12;;;;;;;7.07;5.45;;;;;;;;;;5052870;28;20381;-57
2021/11/26 03:29:38;;;;;;;8.07;6.00;;;;;;;;;;5053941;28;20470;-57
2021/11/26 03:32:08;;;;;;;8.27;5.50;;;;;;;;;;5071874;28;20032;-59
2021/11/26 03:34:34;;;;;;;7.72;5.30;;;;;;;;;;5074695;28;20130;-57
2021/11/26 03:37:00;;;;;;;6.90;5.63;;;;;;;;;;5073958;28;20405;-57
2021/11/26 03:39:26;;;;;;;6.32;5.40;;;;;;;;;;5073961;28;20611;-57
2021/11/26 03:41:52;;;;;;;8.38;5.43;;;;;;;;;;5073980;28;20035;-57
2021/11/26 03:44:19;;;;;;;7.43;5.47;;;;;;;;;;5073710;28;20032;-57
2021/11/26 03:46:45;;;;;;;7.88;5.82;;;;;;;;;;5074370;28;20433;-58
2021/11/26 03:49:11;;;;;;;7.43;5.88;;;;;;;;;;5073324;28;20447;-58
2021/11/26 03:51:37;;;;;;;7.82;5.70;;;;;;;;;;5074206;28;20039;-57
2021/11/26 03:54:03;;;;;;;6.97;5.45;;;;;;;;;;5074277;28;20047;-57
2021/11/26 03:56:29;;;;;;;6.85;4.95;;;;;;;;;;5073335;28;20428;-57
2021/11/26 03:58:55;;;;;;;8.63;5.95;;;;;;;;;;5074056;28;20409;-57
2021/11/26 04:01:21;;;;;;;7.80;5.57;;;;;;;;;;5071549;28;20086;-57
2021/11/26 04:03:47;;;;;;;7.07;5.53;;;;;;;;;;5053047;28;20021;-56
2021/11/26 04:06:13;;;;;;;7.38;5.97;;;;;;;;;;5051812;28;20470;-54
2021/11/26 04:08:39;;;;;;;8.13;6.50;;;;;;;;;;5052498;28;20040;-57
2021/11/26 04:11:11;;;;;;;7.32;5.88;;;;;;;;;;5053862;28;20024;-61
2021/11/26 04:13:38;;;;;;;7.15;5.60;;;;;;;;;;5052461;28;20430;-50
2021/11/26 04:16:06;;;;;;;7.07;5.47;;;;;;;;;;5052575;28;20025;-56
2021/11/26 04:18:34;;;;;;;6.57;5.22;;;;;;;;;;5052602;28;20047;-58
2021/11/26 04:21:02;;;;;;;5.93;4.50;;;;;;;;;;5052724;28;20025;-57
2021/11/26 04:23:28;;;;;;;5.95;4.80;;;;;;;;;;5051420;28;20024;-57
2021/11/26 04:25:55;;;;;;;7.50;5.10;;;;;;;;;;5054754;28;20029;-58
2021/11/26 04:28:21;;;;;;;6.53;4.97;;;;;;;;;;5051677;28;20111;-58
2021/11/26 04:30:47;;;;;;;7.53;5.82;;;;;;;;;;5056348;28;20424;-58
2021/11/26 04:33:13;;;;;;;7.63;5.40;;;;;;;;;;5051379;28;20507;-59
2021/11/26 04:35:39;;;;;;;7.43;5.97;;;;;;;;;;5052040;28;20355;-58
2021/11/26 04:38:09;;;;;;;9.68;6.40;;;;;;;;;;5051670;28;20701;-60
2021/11/26 04:40:35;;;;;;;7.28;5.00;;;;;;;;;;5053948;28;20865;-58
2021/11/26 04:43:01;;;;;;;6.40;4.78;;;;;;;;;;5055182;28;20021;-57
2021/11/26 04:45:27;;;;;;;6.50;5.35;;;;;;;;;;5052541;28;20202;-57
2021/11/26 04:47:54;;;;;;;8.05;5.50;;;;;;;;;;5051593;28;20142;-57
2021/11/26 04:50:20;;;;;;;9.13;5.60;;;;;;;;;;5052575;28;20017;-57
2021/11/26 04:52:46;;;;;;;8.25;5.70;;;;;;;;;;5051741;28;20439;-57
2021/11/26 04:55:13;;;;;;;6.50;5.22;;;;;;;;;;5050855;28;20021;-57
2021/11/26 04:57:39;;;;;;;9.10;5.45;;;;;;;;;;5053062;28;20029;-58
2021/11/26 05:00:10;;;;;;;8.23;5.85;;;;;;;;;;5050973;28;20108;-59
2021/11/26 05:02:36;;;;;;;7.63;5.72;;;;;;;;;;5051358;28;20036;-57
2021/11/26 05:05:02;;;;;;;7.55;5.32;;;;;;;;;;5051690;28;20013;-58
2021/11/26 05:07:28;;;;;;;6.97;5.10;;;;;;;;;;5050802;28;20017;-58
2021/11/26 05:09:54;;;;;;;8.10;5.88;;;;;;;;;;5051686;28;20108;-56
2021/11/26 05:12:21;;;;;;;9.00;5.75;;;;;;;;;;5051907;28;20527;-57
2021/11/26 05:14:47;;;;;;;7.25;5.25;;;;;;;;;;5051245;28;20032;-57
2021/11/26 05:17:13;;;;;;;7.93;5.28;;;;;;;;;;5053673;28;20087;-58
2021/11/26 05:19:39;;;;;;;6.50;5.05;;;;;;;;;;5051379;28;20425;-57
2021/11/26 05:22:12;;;;;;;7.28;5.03;;;;;;;;;;5055457;28;20037;-57
2021/11/26 05:24:38;;;;;;;7.22;4.90;;;;;;;;;;5050834;28;20017;-57
2021/11/26 05:27:04;;;;;;;6.30;4.90;;;;;;;;;;5051610;28;20549;-57
2021/11/26 05:29:30;;;;;;;6.70;4.78;;;;;;;;;;5050557;28;20063;-57
2021/11/26 05:31:56;;;;;;;7.28;5.28;;;;;;;;;;5053778;28;20717;-58
2021/11/26 05:34:22;;;;;;;6.60;5.15;;;;;;;;;;5050805;28;20021;-57
2021/11/26 05:36:48;;;;;;;6.88;5.32;;;;;;;;;;5050525;28;20059;-57
2021/11/26 05:39:14;;;;;;;7.55;5.68;;;;;;;;;;5050336;28;20066;-57
2021/11/26 05:41:40;;;;;;;6.80;4.70;;;;;;;;;;5052610;28;20024;-56
2021/11/26 05:44:13;;;;;;;8.23;4.72;;;;;;;;;;5051242;28;20025;-59
2021/11/26 05:46:39;;;;;;;7.50;5.32;;;;;;;;;;5050721;28;20036;-57
2021/11/26 05:49:05;;;;;;;6.35;4.90;;;;;;;;;;5050623;28;20033;-56
2021/11/26 05:51:31;;;;;;;7.88;5.28;;;;;;;;;;5051863;28;20028;-57
2021/11/26 05:53:57;;;;;;;7.85;5.35;;;;;;;;;;5050702;28;20460;-57
2021/11/26 05:56:23;;;;;;;6.65;5.32;;;;;;;;;;5050642;28;20044;-56
2021/11/26 05:58:49;;;;;;;7.38;5.18;;;;;;;;;;5052145;28;20029;-56
2021/11/26 06:01:15;;;;;;;6.13;4.97;;;;;;;;;;5062980;28;20021;-57
2021/11/26 06:03:41;;;;;;;7.38;4.97;;;;;;;;;;5072106;28;20039;-57
2021/11/26 06:06:10;;;;;;;8.05;5.15;;;;;;;;;;5071075;28;20071;-59
2021/11/26 06:08:36;;;;;;;7.13;5.55;;;;;;;;;;5071725;28;20035;-56
2021/11/26 06:11:02;;;;;;;6.68;5.95;;;;;;;;;;5071204;28;20519;-56
2021/11/26 06:13:28;;;;;;;6.40;5.03;;;;;;;;;;5071185;28;20102;-56
2021/11/26 06:15:55;;;;;;;7.72;5.68;;;;;;;;;;5071992;28;20067;-57
2021/11/26 06:18:22;;;;;;;6.90;5.22;;;;;;;;;;5071362;28;20028;-57
2021/11/26 06:20:48;;;;;;;7.45;5.13;;;;;;;;;;5071630;28;20097;-55
2021/11/26 06:23:14;;;;;;;6.35;5.00;;;;;;;;;;5056522;28;20474;-55
2021/11/26 06:25:40;;;;;;;7.43;5.05;;;;;;;;;;5051324;28;20025;-56
2021/11/26 06:28:06;;;;;;;6.97;5.13;;;;;;;;;;5051363;28;20044;-55
2021/11/26 06:30:32;;;;;;;8.18;4.97;;;;;;;;;;5051205;28;20022;-56
2021/11/26 06:32:58;;;;;;;8.60;5.68;;;;;;;;;;5051670;28;20378;-55
2021/11/26 06:35:25;;;;;;;7.20;5.32;;;;;;;;;;5050954;28;20028;-56
2021/11/26 06:37:52;;;;;;;6.63;5.22;;;;;;;;;;5051179;28;20402;-56
2021/11/26 06:40:20;;;;;;;7.30;5.03;;;;;;;;;;5050814;28;20036;-57
2021/11/26 06:42:46;;;;;;;8.57;5.80;;;;;;;;;;5051406;28;20025;-57
2021/11/26 06:45:12;;;;;;;9.07;5.10;;;;;;;;;;5050404;28;20057;-56
2021/11/26 06:47:39;;;;;;;6.18;4.75;;;;;;;;;;5050687;28;20486;-56
2021/11/26 06:50:06;;;;;;;7.00;5.25;;;;;;;;;;5049501;28;20100;-57
2021/11/26 06:52:33;;;;;;;6.50;5.00;;;;;;;;;;5050350;28;20037;-57
2021/11/26 06:55:00;;;;;;;6.80;5.22;;;;;;;;;;5051588;28;20049;-56
2021/11/26 06:57:26;;;;;;;7.05;4.75;;;;;;;;;;5050552;28;20102;-55
2021/11/26 06:59:53;;;;;;;6.78;5.00;;;;;;;;;;5051466;28;20033;-57
2021/11/26 07:02:20;;;;;;;6.05;4.88;;;;;;;;;;5050629;28;20377;-57
2021/11/26 07:04:46;;;;;;;5.90;4.65;;;;;;;;;;5051557;28;20093;-57
2021/11/26 07:07:13;;;;;;;6.47;4.63;;;;;;;;;;5050589;28;20014;-59
2021/11/26 07:09:39;;;;;;;7.82;5.13;;;;;;;;;;5051361;28;20033;-56
2021/11/26 07:12:09;;;;;;;6.47;4.57;;;;;;;;;;5050849;28;20544;-57
2021/11/26 07:14:36;;;;;;;7.20;5.00;;;;;;;;;;5051285;28;20056;-56
2021/11/26 07:17:02;;;;;;;8.18;5.47;;;;;;;;;;5051566;28;20025;-56
2021/11/26 07:19:28;;;;;;;6.95;4.53;;;;;;;;;;5050462;28;20025;-58
2021/11/26 07:21:54;;;;;;;6.90;5.05;;;;;;;;;;5051823;28;20382;-57
2021/11/26 07:24:20;;;;;;;8.45;5.50;;;;;;;;;;5053812;28;20383;-58
2021/11/26 07:26:47;;;;;;;8.02;5.47;;;;;;;;;;5054731;28;20053;-63
2021/11/26 07:29:14;;;;;;;8.23;4.40;;;;;;;;;;5053342;28;20446;-58
2021/11/26 07:31:40;;;;;;;9.30;5.07;;;;;;;;;;5054618;28;20029;-57
2021/11/26 07:34:06;;;;;;;9.02;6.22;;;;;;;;;;5052613;28;20585;-61
2021/11/26 07:36:32;;;;;;;8.70;5.20;;;;;;;;;;5051707;28;20231;-58
2021/11/26 07:38:58;;;;;;;9.30;4.88;;;;;;;;;;5053935;28;20074;-58
2021/11/26 07:41:26;;;;;;;8.32;4.70;;;;;;;;;;5053406;28;20410;-59
2021/11/26 07:43:52;;;;;;;7.85;4.80;;;;;;;;;;5054357;28;20033;-58
2021/11/26 07:46:18;;;;;;;6.70;4.50;;;;;;;;;;5053678;28;20079;-57
2021/11/26 07:48:44;;;;;;;7.10;4.65;;;;;;;;;;5053972;28;20027;-58
2021/11/26 07:51:16;;;;;;;6.65;4.63;;;;;;;;;;5054241;28;20343;-60
2021/11/26 07:53:42;;;;;;;7.57;4.75;;;;;;;;;;5054084;28;20029;-58
2021/11/26 07:56:09;;;;;;;10.90;4.50;;;;;;;;;;5054279;28;20454;-58
2021/11/26 07:58:35;;;;;;;5.82;3.65;;;;;;;;;;5053488;28;20025;-58
2021/11/26 08:01:01;;;;;;;6.13;4.35;;;;;;;;;;5053829;28;20099;-58
2021/11/26 08:03:27;;;;;;;7.15;4.97;;;;;;;;;;5053371;28;20037;-58
2021/11/26 08:05:53;;;;;;;8.48;4.55;;;;;;;;;;5053716;28;20355;-58
2021/11/26 08:08:19;;;;;;;6.22;3.92;;;;;;;;;;5053170;28;20370;-57
2021/11/26 08:10:45;;;;;;;7.20;3.90;;;;;;;;;;5053913;28;20108;-58
2021/11/26 08:13:17;;;;;;;10.55;4.72;;;;;;;;;;5053528;28;20458;-61
2021/11/26 08:15:43;;;;;;;5.93;4.35;;;;;;;;;;5054175;28;20029;-58
2021/11/26 08:18:10;;;;;;;6.60;4.43;;;;;;;;;;5053622;28;20044;-58
2021/11/26 08:20:37;;;;;;;6.78;4.50;;;;;;;;;;5053412;28;20025;-57
2021/11/26 08:23:03;;;;;;;6.28;4.03;;;;;;;;;;5052418;28;20031;-58
2021/11/26 08:25:30;;;;;;;6.22;4.10;;;;;;;;;;5052843;28;20114;-57
2021/11/26 08:27:56;;;;;;;10.80;5.05;;;;;;;;;;5053585;28;20060;-59
2021/11/26 08:30:23;;;;;;;7.53;4.60;;;;;;;;;;5052645;28;20025;-58
2021/11/26 08:32:49;;;;;;;5.78;3.97;;;;;;;;;;5053568;28;20063;-59
2021/11/26 08:35:16;;;;;;;6.15;4.63;;;;;;;;;;5051786;28;20506;-61
2021/11/26 08:37:42;;;;;;;7.28;3.97;;;;;;;;;;5053661;28;20071;-58
2021/11/26 08:40:09;;;;;;;7.47;5.35;;;;;;;;;;5053125;28;20040;-59
2021/11/26 08:42:35;;;;;;;6.93;4.05;;;;;;;;;;5052729;28;20021;-59
2021/11/26 08:45:01;;;;;;;8.07;4.57;;;;;;;;;;5052920;28;20438;-54
2021/11/26 08:47:27;;;;;;;5.32;4.10;;;;;;;;;;5052431;28;20497;-57
2021/11/26 08:49:53;;;;;;;7.22;4.57;;;;;;;;;;5053230;28;20417;-59
2021/11/26 08:52:20;;;;;;;5.88;4.50;;;;;;;;;;5052534;28;20083;-58
2021/11/26 08:54:46;;;;;;;9.57;4.85;;;;;;;;;;5053575;28;20072;-58
2021/11/26 08:57:19;;;;;;;6.03;4.13;;;;;;;;;;5053188;28;20067;-61
2021/11/26 08:59:45;;;;;;;6.20;4.10;;;;;;;;;;5052916;28;20029;-58
2021/11/26 09:02:12;;;;;;;5.53;4.40;;;;;;;;;;5053019;28;20116;-60
2021/11/26 09:04:39;;;;;;;6.85;4.90;;;;;;;;;;5050845;28;20040;-59
2021/11/26 09:07:05;;;;;;;7.22;4.18;;;;;;;;;;5051724;28;20032;-59
2021/11/26 09:09:31;;;;;;;7.25;4.05;;;;;;;;;;5051796;28;20029;-57
2021/11/26 09:11:57;;;;;;;5.55;4.35;;;;;;;;;;5052894;28;20033;-59
2021/11/26 09:14:23;;;;;;;6.07;4.40;;;;;;;;;;5051549;28;20036;-57
2021/11/26 09:16:49;;;;;;;5.18;3.67;;;;;;;;;;5052814;28;20402;-60
2021/11/26 09:19:17;;;;;;;7.38;4.47;;;;;;;;;;5052040;28;20091;-61
2021/11/26 09:21:43;;;;;;;5.28;4.22;;;;;;;;;;5052705;28;20040;-54
2021/11/26 09:24:09;;;;;;;9.07;4.07;;;;;;;;;;5052665;28;20028;-60
2021/11/26 09:26:35;;;;;;;4.82;3.55;;;;;;;;;;5051903;28;20248;-58
2021/11/26 09:29:01;;;;;;;5.35;3.88;;;;;;;;;;5052384;28;20544;-59
2021/11/26 09:31:27;;;;;;;5.45;4.10;;;;;;;;;;5051569;28;20055;-59
2021/11/26 09:33:55;;;;;;;7.40;4.80;;;;;;;;;;5052332;28;20035;-61
2021/11/26 09:36:23;;;;;;;6.28;4.05;;;;;;;;;;5051238;28;20136;-59
2021/11/26 09:38:49;;;;;;;7.45;4.28;;;;;;;;;;5052729;28;20037;-60
2021/11/26 09:41:18;;;;;;;6.53;3.75;;;;;;;;;;5051788;28;20523;-60
2021/11/26 09:43:47;;;;;;;5.95;3.92;;;;;;;;;;5052311;28;20036;-58
2021/11/26 09:46:13;;;;;;;6.47;4.40;;;;;;;;;;5051551;28;20067;-59
2021/11/26 09:48:39;;;;;;;7.25;5.25;;;;;;;;;;5051723;28;20102;-60
2021/11/26 09:51:06;;;;;;;4.93;3.55;;;;;;;;;;5052300;28;20110;-58
2021/11/26 09:53:32;;;;;;;7.80;4.32;;;;;;;;;;5051439;28;20032;-60
2021/11/26 09:56:03;;;;;;;5.97;4.05;;;;;;;;;;5051882;28;20074;-61
2021/11/26 09:58:31;;;;;;;6.50;4.18;;;;;;;;;;5051337;28;20040;-58
2021/11/26 10:00:58;;;;;;;6.20;4.22;;;;;;;;;;5051862;28;20035;-58
2021/11/26 10:03:35;;;;;;;7.20;4.10;;;;;;;;;;5051082;28;20017;-57
2021/11/26 10:06:01;;;;;;;5.38;3.97;;;;;;;;;;5051498;28;20435;-58
2021/11/26 10:08:27;;;;;;;5.43;3.35;;;;;;;;;;5051338;28;20028;-59
2021/11/26 10:11:00;;;;;;;5.95;4.25;;;;;;;;;;5051907;28;20029;-59
2021/11/26 10:13:29;;;;;;;5.57;4.07;;;;;;;;;;5051078;28;20072;-59
2021/11/26 10:15:55;;;;;;;6.63;4.20;;;;;;;;;;5051255;28;20029;-59
2021/11/26 10:18:26;;;;;;;5.85;4.57;;;;;;;;;;5054984;28;20128;-59
2021/11/26 10:20:52;;;;;;;5.32;3.60;;;;;;;;;;5052022;28;20025;-59
2021/11/26 10:23:21;;;;;;;6.22;4.15;;;;;;;;;;5050973;28;20074;-62
2021/11/26 10:25:47;;;;;;;6.55;4.35;;;;;;;;;;5051701;28;20024;-59
2021/11/26 10:28:14;;;;;;;6.45;4.10;;;;;;;;;;5051758;28;20025;-59
2021/11/26 10:30:41;;;;;;;7.70;4.65;;;;;;;;;;5050920;28;20078;-63
2021/11/26 10:33:10;;;;;;;9.90;3.90;;;;;;;;;;5051504;28;20087;-62
2021/11/26 10:35:36;;;;;;;6.93;4.85;;;;;;;;;;5048210;28;20089;-60
2021/11/26 10:38:23;;;;;;;5.32;3.80;;;;;;;;;;5051116;28;20053;-59
2021/11/26 10:40:52;;;;;;;5.40;3.80;;;;;;;;;;5051536;28;20033;-59
2021/11/26 10:43:32;;;;;;;5.85;4.25;;;;;;;;;;5051218;28;20427;-60
2021/11/26 10:46:28;;;;;;;7.07;4.72;;;;;;;;;;5051366;28;20049;-59
2021/11/26 10:49:18;;;;;;;6.50;4.22;;;;;;;;;;5051184;28;20073;-51
2021/11/26 11:00:05;;;;;;;9.30;5.30;;;;;;;;;;5055470;28;20386;-61
2021/11/26 11:02:52;;;;;;;7.72;5.03;;;;;;;;;;5054359;28;20032;-60
2021/11/26 11:05:32;;;;;;;9.02;5.70;;;;;;;;;;5054787;28;20071;-65
2021/11/26 11:07:59;;;;;;;9.02;5.95;;;;;;;;;;5055475;28;20029;-60
2021/11/26 11:10:30;;;;;;;9.15;5.68;;;;;;;;;;5054427;28;20066;-60
2021/11/26 11:13:08;;;;;;;12.00;6.53;;;;;;;;;;5055145;28;20028;-60
2021/11/26 11:15:34;;;;;;;10.63;6.65;;;;;;;;;;5054461;28;20036;-55
2021/11/26 11:18:01;;;;;;;11.93;6.22;;;;;;;;;;5055084;28;20455;-61
2021/11/26 11:20:27;;;;;;;10.10;6.10;;;;;;;;;;5054366;28;20025;-58
2021/11/26 11:22:53;;;;;;;9.77;6.55;;;;;;;;;;5054949;28;20033;-61
2021/11/26 11:25:26;;;;;;;12.27;6.75;;;;;;;;;;5054540;28;20029;-64
2021/11/26 11:28:02;;;;;;;9.93;7.30;;;;;;;;;;5054570;28;20048;-60
2021/11/26 11:30:29;;;;;;;11.30;6.70;;;;;;;;;;5054127;28;20077;-61
2021/11/26 11:32:55;;;;;;;12.35;7.22;;;;;;;;;;5054611;28;20013;-58
2021/11/26 11:35:25;;;;;;;13.02;7.50;;;;;;;;;;5053765;28;20021;-58
2021/11/26 11:37:55;;;;;;;15.55;7.78;;;;;;;;;;5054287;28;20048;-54
2021/11/26 11:40:29;;;;;;;10.98;5.95;;;;;;;;;;5053921;28;20029;-58
2021/11/26 11:43:05;;;;;;;11.20;6.93;;;;;;;;;;5054516;28;20075;-59
2021/11/26 11:45:31;;;;;;;11.05;6.15;;;;;;;;;;5053987;28;20024;-66
2021/11/26 11:47:57;;;;;;;10.40;6.47;;;;;;;;;;5054311;28;20427;-63
2021/11/26 11:50:28;;;;;;;10.13;6.40;;;;;;;;;;5053642;28;20071;-61
2021/11/26 11:53:03;;;;;;;8.30;5.82;;;;;;;;;;5054263;28;20021;-62
2021/11/26 11:55:29;;;;;;;10.82;5.97;;;;;;;;;;5053479;28;20029;-66
2021/11/26 11:58:34;;;;;;;8.52;5.88;;;;;;;;;;5054444;28;20075;-62
2021/11/26 12:01:00;;;;;;;9.48;6.13;;;;;;;;;;5051153;28;20071;-66
2021/11/26 12:03:29;;;;;;;9.90;6.20;;;;;;;;;;5052961;28;20653;-68
2021/11/26 12:05:59;;;;;;;10.32;5.70;;;;;;;;;;5053761;28;20048;-62
2021/11/26 12:08:26;;;;;;;9.57;5.50;;;;;;;;;;5053092;28;20021;-63
2021/11/26 12:10:55;;;;;;;9.38;5.35;;;;;;;;;;5054147;28;20028;-56
2021/11/26 12:13:26;;;;;;;6.30;5.10;;;;;;;;;;5053214;28;20470;-66
2021/11/26 12:16:03;;;;;;;9.90;5.28;;;;;;;;;;5054182;28;20032;-58
2021/11/26 12:18:44;;;;;;;8.95;5.15;;;;;;;;;;5052901;28;20029;-48
2021/11/26 12:21:11;;;;;;;8.98;5.35;;;;;;;;;;5053942;28;20147;-53
2021/11/26 12:26:44;;;;;;;8.00;4.97;;;;;;;;;;5047774;28;20094;-49
2021/11/26 12:29:12;;;;;;;14.32;4.72;;;;;;;;;;5053596;28;20096;-52
2021/11/26 12:31:39;;;;;;;8.40;5.35;;;;;;;;;;5052782;28;20074;-54
2021/11/26 12:34:19;;;;;;;8.02;4.57;;;;;;;;;;5053218;28;20032;-57
2021/11/26 12:36:53;;;;;;;7.32;4.35;;;;;;;;;;5052445;28;20135;-56
2021/11/26 12:39:26;;;;;;;7.22;3.90;;;;;;;;;;5053369;28;20029;-58
2021/11/26 12:41:57;;;;;;;8.68;4.15;;;;;;;;;;5053521;28;20025;-57
2021/11/26 12:44:29;;;;;;;6.75;4.53;;;;;;;;;;5052721;28;20064;-59
2021/11/26 12:46:59;;;;;;;10.00;4.45;;;;;;;;;;5053429;28;20021;-55
2021/11/26 12:52:04;;;;;;;7.10;4.68;;;;;;;;;;5053362;28;20037;-50
2021/11/26 12:54:33;;;;;;;9.88;5.13;;;;;;;;;;5052284;28;20382;-55
2021/11/26 12:57:03;;;;;;;7.10;4.60;;;;;;;;;;5053245;28;20053;-56
2021/11/26 12:59:29;;;;;;;6.00;4.65;;;;;;;;;;5052079;28;20029;-58
2021/11/26 13:01:55;;;;;;;6.43;4.32;;;;;;;;;;5052762;28;20025;-50
2021/11/26 13:04:23;;;;;;;6.38;4.28;;;;;;;;;;5052268;28;20028;-55
2021/11/26 13:06:50;;;;;;;6.38;3.78;;;;;;;;;;5052672;28;20056;-58
2021/11/26 13:09:16;;;;;;;6.43;4.43;;;;;;;;;;5052932;28;20036;-55
2021/11/26 13:11:43;;;;;;;5.90;4.13;;;;;;;;;;5052226;28;20374;-57
2021/11/26 13:14:09;;;;;;;5.45;4.03;;;;;;;;;;5052914;28;20454;-57
2021/11/26 13:16:36;;;;;;;6.97;4.50;;;;;;;;;;5051993;28;20083;-56
2021/11/26 13:19:03;;;;;;;5.43;4.13;;;;;;;;;;5052883;28;20071;-57
2021/11/26 13:21:29;;;;;;;7.80;4.22;;;;;;;;;;5051194;28;20516;-54
2021/11/26 13:23:55;;;;;;;9.10;5.05;;;;;;;;;;5052710;28;20025;-55
2021/11/26 13:26:28;;;;;;;9.80;4.50;;;;;;;;;;5051058;28;20482;-58
2021/11/26 13:28:55;;;;;;;7.47;4.07;;;;;;;;;;5052585;28;20029;-51
2021/11/26 13:31:22;;;;;;;6.45;4.28;;;;;;;;;;5052699;28;20068;-60
2021/11/26 13:33:49;;;;;;;6.43;4.40;;;;;;;;;;5052088;28;20113;-60
2021/11/26 13:36:17;;;;;;;8.77;4.53;;;;;;;;;;5051901;28;20052;-60
2021/11/26 13:38:44;;;;;;;6.15;3.95;;;;;;;;;;5051428;28;20697;-60
2021/11/26 13:41:14;;;;;;;6.00;3.72;;;;;;;;;;5052158;28;20482;-60
2021/11/26 13:43:40;;;;;;;7.95;4.57;;;;;;;;;;5051447;28;20013;-59
2021/11/26 13:46:26;;;;;;;6.82;4.40;;;;;;;;;;5052339;28;20126;-60
2021/11/26 13:48:54;;;;;;;4.97;3.92;;;;;;;;;;5052285;28;20037;-59
2021/11/26 13:51:23;;;;;;;5.25;4.00;;;;;;;;;;5051882;28;20032;-60
2021/11/26 13:53:51;;;;;;;5.28;3.55;;;;;;;;;;5051769;28;20036;-60
2021/11/26 13:56:18;;;;;;;5.25;3.78;;;;;;;;;;5051951;28;20074;-58
2021/11/26 13:58:51;;;;;;;5.57;4.13;;;;;;;;;;5051306;28;20106;-59
2021/11/26 14:01:29;;;;;;;5.10;3.60;;;;;;;;;;5051694;28;20014;-59
2021/11/26 14:03:57;;;;;;;5.68;4.10;;;;;;;;;;5051348;28;20075;-60
2021/11/26 14:06:27;;;;;;;5.55;4.20;;;;;;;;;;5051555;28;20036;-60
2021/11/26 14:08:54;;;;;;;6.18;3.40;;;;;;;;;;5051989;28;20028;-60
2021/11/26 14:11:31;;;;;;;6.22;4.03;;;;;;;;;;5052024;28;20099;-59
2021/11/26 14:13:58;;;;;;;5.30;3.58;;;;;;;;;;5051953;28;20082;-54
2021/11/26 14:16:30;;;;;;;4.35;3.10;;;;;;;;;;5051728;28;20035;-60
2021/11/26 14:18:58;;;;;;;5.63;3.70;;;;;;;;;;5051905;28;20032;-55
2021/11/26 14:21:29;;;;;;;5.72;3.83;;;;;;;;;;5051454;28;20403;-58
2021/11/26 14:24:05;;;;;;;4.32;3.70;;;;;;;;;;5051922;28;20532;-53
2021/11/26 14:26:32;;;;;;;5.32;3.63;;;;;;;;;;5051175;28;20040;-55
2021/11/26 14:29:03;;;;;;;5.63;3.55;;;;;;;;;;5051506;28;20103;-55
2021/11/26 14:31:30;;;;;;;5.15;3.47;;;;;;;;;;5050983;28;20128;-54
2021/11/26 14:34:00;;;;;;;4.75;3.20;;;;;;;;;;5055914;28;20024;-55
2021/11/26 14:36:28;;;;;;;5.05;2.65;;;;;;;;;;5054552;28;20174;-58
2021/11/26 14:38:54;;;;;;;3.97;2.80;;;;;;;;;;5055773;28;20401;-51
2021/11/26 14:41:21;;;;;;;4.45;3.17;;;;;;;;;;5055783;28;20021;-51
2021/11/26 14:43:48;;;;;;;4.80;3.42;;;;;;;;;;5054823;28;20095;-53
2021/11/26 14:46:15;;;;;;;4.13;3.25;;;;;;;;;;5055751;28;20442;-55
2021/11/26 14:48:47;;;;;;;4.40;3.15;;;;;;;;;;5054813;28;20096;-53
2021/11/26 14:51:18;;;;;;;5.18;3.22;;;;;;;;;;5055560;28;20025;-54
2021/11/26 14:53:44;;;;;;;3.05;2.60;;;;;;;;;;5054675;28;20021;-56
2021/11/26 14:56:12;;;;;;;3.63;2.90;;;;;;;;;;5055266;28;20021;-58
2021/11/26 14:58:38;;;;;;;3.85;3.45;;;;;;;;;;5054822;28;20048;-60
2021/11/26 15:01:04;;;;;;;3.40;2.78;;;;;;;;;;5055259;28;20436;-59